createdAt,value
2022-10-06T00:01:28.333Z,0.90
2022-10-06T00:03:55.300Z,0.90
2022-10-06T00:06:22.135Z,0.70
2022-10-06T00:08:51.471Z,0.50
2022-10-06T00:11:20.820Z,0.80
2022-10-06T00:13:52.202Z,0.67
2022-10-06T00:16:24.512Z,0.83
2022-10-06T00:18:53.797Z,0.70
2022-10-06T00:21:20.800Z,0.60
2022-10-06T00:23:47.673Z,0.70
2022-10-06T00:26:17.052Z,0.50
2022-10-06T00:28:48.135Z,0.60
2022-10-06T00:31:16.819Z,0.60
2022-10-06T00:33:44.033Z,0.67
2022-10-06T00:36:11.738Z,0.90
2022-10-06T00:38:38.971Z,0.80
2022-10-06T00:41:12.121Z,0.70
2022-10-06T00:43:50.913Z,0.70
2022-10-06T00:46:24.344Z,0.70
2022-10-06T00:49:01.357Z,0.60
2022-10-06T00:51:30.424Z,0.70
2022-10-06T00:53:59.827Z,0.60
2022-10-06T00:56:26.990Z,0.60
2022-10-06T00:58:56.232Z,1.10
2022-10-06T01:01:26.290Z,0.83
2022-10-06T01:04:05.009Z,1.13
2022-10-06T01:06:47.137Z,0.70
2022-10-06T01:09:17.009Z,1.03
2022-10-06T01:11:48.934Z,0.70
2022-10-06T01:14:17.334Z,0.80
2022-10-06T01:16:49.218Z,0.60
2022-10-06T01:19:47.458Z,0.70
2022-10-06T01:22:18.245Z,0.70
2022-10-06T01:24:47.778Z,0.67
2022-10-06T01:27:16.441Z,0.60
2022-10-06T01:29:43.614Z,0.90
2022-10-06T01:32:10.676Z,0.80
2022-10-06T01:34:37.590Z,0.70
2022-10-06T01:37:06.687Z,0.70
2022-10-06T01:39:33.762Z,0.60
2022-10-06T01:42:00.788Z,0.60
2022-10-06T01:44:30.733Z,0.80
2022-10-06T01:46:57.705Z,0.67
2022-10-06T01:49:24.622Z,0.60
2022-10-06T01:51:51.461Z,0.60
2022-10-06T01:54:21.270Z,1.03
2022-10-06T01:56:48.134Z,1.20
2022-10-06T01:59:15.180Z,1.50
2022-10-06T02:01:44.193Z,0.60
2022-10-06T02:04:13.677Z,0.60
2022-10-06T02:06:40.660Z,0.60
2022-10-06T02:09:10.550Z,0.60
2022-10-06T02:11:39.609Z,0.80
2022-10-06T02:14:06.396Z,1.13
2022-10-06T02:16:33.335Z,0.97
2022-10-06T02:19:00.129Z,1.00
2022-10-06T02:21:27.076Z,1.00
2022-10-06T02:23:54.045Z,0.90
2022-10-06T02:26:21.014Z,1.10
2022-10-06T02:28:49.862Z,0.93
2022-10-06T02:31:19.577Z,0.93
2022-10-06T02:33:46.551Z,0.83
2022-10-06T02:36:15.518Z,1.10
2022-10-06T02:38:42.888Z,1.30
2022-10-06T02:41:11.099Z,1.10
2022-10-06T02:43:38.488Z,1.00
2022-10-06T02:46:13.168Z,1.00
2022-10-06T02:48:41.147Z,0.77
2022-10-06T02:51:19.126Z,1.57
2022-10-06T02:53:51.069Z,1.20
2022-10-06T02:56:24.895Z,1.37
2022-10-06T02:58:53.464Z,0.90
2022-10-06T03:01:25.653Z,0.90
2022-10-06T03:03:53.207Z,0.93
2022-10-06T03:06:23.875Z,1.10
2022-10-06T03:08:56.935Z,0.83
2022-10-06T03:11:30.235Z,1.17
2022-10-06T03:13:57.517Z,0.90
2022-10-06T03:16:32.332Z,1.13
2022-10-06T03:19:00.600Z,1.50
2022-10-06T03:21:33.689Z,1.10
2022-10-06T03:24:03.898Z,1.13
2022-10-06T03:26:34.765Z,1.67
2022-10-06T03:29:01.957Z,1.00
2022-10-06T03:31:29.557Z,1.23
2022-10-06T03:33:59.539Z,1.33
2022-10-06T03:36:31.083Z,1.03
2022-10-06T03:38:57.972Z,1.17
2022-10-06T03:41:28.127Z,1.43
2022-10-06T03:43:59.319Z,1.13
2022-10-06T03:46:32.709Z,1.30
2022-10-06T03:49:02.016Z,1.77
2022-10-06T03:51:35.624Z,1.33
2022-10-06T03:54:05.115Z,1.10
2022-10-06T03:56:38.689Z,1.40
2022-10-06T03:59:10.292Z,1.20
2022-10-06T04:01:44.262Z,1.47
2022-10-06T04:04:12.929Z,1.60
2022-10-06T04:06:43.298Z,1.63
2022-10-06T04:09:15.351Z,1.37
2022-10-06T04:11:45.538Z,1.50
2022-10-06T04:14:15.496Z,1.40
2022-10-06T04:16:46.827Z,1.70
2022-10-06T04:19:17.775Z,1.97
2022-10-06T04:21:46.945Z,1.90
2022-10-06T04:24:19.201Z,1.70
2022-10-06T04:26:52.213Z,2.00
2022-10-06T04:29:19.379Z,1.80
2022-10-06T04:31:47.059Z,1.60
2022-10-06T04:34:18.672Z,2.07
2022-10-06T04:36:46.182Z,1.60
2022-10-06T04:39:13.464Z,1.90
2022-10-06T04:41:42.394Z,2.03
2022-10-06T04:44:12.093Z,2.03
2022-10-06T04:46:43.631Z,2.00
2022-10-06T04:49:19.083Z,2.40
2022-10-06T04:51:48.967Z,1.93
2022-10-06T04:54:16.029Z,1.63
2022-10-06T04:56:45.296Z,1.53
2022-10-06T04:59:14.777Z,2.60
2022-10-06T05:01:41.582Z,1.83
2022-10-06T05:04:10.928Z,2.17
2022-10-06T05:06:41.302Z,1.87
2022-10-06T05:09:16.978Z,1.43
2022-10-06T05:11:46.696Z,2.20
2022-10-06T05:14:15.865Z,1.60
2022-10-06T05:16:45.237Z,2.17
2022-10-06T05:19:12.319Z,1.90
2022-10-06T05:21:39.362Z,2.47
2022-10-06T05:24:09.040Z,2.60
2022-10-06T05:26:36.966Z,2.40
2022-10-06T05:29:04.096Z,2.47
2022-10-06T05:31:33.411Z,2.53
2022-10-06T05:34:02.580Z,2.03
2022-10-06T05:36:32.552Z,1.97
2022-10-06T05:39:00.108Z,2.90
2022-10-06T05:41:29.675Z,2.43
2022-10-06T05:43:58.355Z,2.80
2022-10-06T05:46:28.658Z,2.07
2022-10-06T05:49:01.615Z,2.70
2022-10-06T05:51:33.429Z,1.77
2022-10-06T05:54:01.012Z,2.07
2022-10-06T05:56:30.674Z,2.60
2022-10-06T05:58:59.126Z,1.77
2022-10-06T06:01:31.539Z,2.63
2022-10-06T06:04:02.966Z,2.60
2022-10-06T06:06:44.311Z,1.90
2022-10-06T06:09:17.428Z,2.60
2022-10-06T06:11:47.897Z,2.47
2022-10-06T06:14:40.281Z,1.83
2022-10-06T06:17:07.231Z,1.83
2022-10-06T06:19:34.057Z,2.20
2022-10-06T06:22:00.960Z,2.30
2022-10-06T06:24:27.793Z,1.93
2022-10-06T06:26:54.764Z,1.77
2022-10-06T06:29:24.367Z,2.70
2022-10-06T06:31:51.388Z,2.20
2022-10-06T06:34:20.901Z,2.80
2022-10-06T06:36:55.204Z,2.40
2022-10-06T06:39:22.182Z,2.00
2022-10-06T06:41:53.944Z,2.17
2022-10-06T06:44:21.211Z,2.57
2022-10-06T06:46:49.632Z,1.80
2022-10-06T06:49:20.143Z,1.97
2022-10-06T06:51:51.006Z,2.10
2022-10-06T06:54:20.170Z,1.90
2022-10-06T06:56:50.241Z,2.10
2022-10-06T06:59:18.458Z,1.50
2022-10-06T07:01:49.133Z,2.50
2022-10-06T07:04:17.733Z,2.70
2022-10-06T07:06:58.779Z,1.97
2022-10-06T07:09:26.672Z,1.87
2022-10-06T07:11:54.982Z,2.30
2022-10-06T07:14:24.084Z,2.50
2022-10-06T07:17:09.717Z,2.33
2022-10-06T07:19:39.190Z,2.47
2022-10-06T07:22:27.386Z,1.93
2022-10-06T07:25:11.709Z,2.33
2022-10-06T07:27:50.989Z,2.27
2022-10-06T07:30:23.948Z,2.80
2022-10-06T07:32:51.996Z,2.60
2022-10-06T07:35:23.680Z,4.03
2022-10-06T07:37:53.134Z,2.63
2022-10-06T07:40:22.556Z,2.17
2022-10-06T07:42:51.677Z,2.57
2022-10-06T07:45:41.530Z,2.67
2022-10-06T07:48:18.125Z,2.20
2022-10-06T07:50:48.076Z,2.10
2022-10-06T07:53:17.679Z,2.40
2022-10-06T07:55:47.432Z,2.40
2022-10-06T07:58:16.766Z,2.63
2022-10-06T08:00:45.691Z,1.93
2022-10-06T08:03:17.850Z,2.97
2022-10-06T08:05:56.995Z,2.50
2022-10-06T08:08:24.005Z,2.33
2022-10-06T08:10:56.220Z,2.70
2022-10-06T08:13:26.628Z,3.07
2022-10-06T08:15:56.429Z,3.43
2022-10-06T08:18:45.577Z,2.53
2022-10-06T08:21:18.850Z,2.27
2022-10-06T08:23:47.934Z,2.77
2022-10-06T08:26:16.788Z,2.00
2022-10-06T08:28:46.969Z,2.63
2022-10-06T08:31:21.363Z,2.17
2022-10-06T08:33:49.494Z,2.23
2022-10-06T08:36:21.054Z,2.70
2022-10-06T08:38:49.985Z,2.23
2022-10-06T08:41:46.069Z,3.03
2022-10-06T08:44:16.567Z,6.10
2022-10-06T08:47:00.490Z,3.00
2022-10-06T08:49:36.085Z,3.00
2022-10-06T08:52:54.853Z,2.63
2022-10-06T08:55:42.864Z,2.77
2022-10-06T08:58:31.222Z,3.77
2022-10-06T09:01:18.758Z,3.10
2022-10-06T09:03:52.130Z,1.80
2022-10-06T09:06:45.788Z,2.87
2022-10-06T09:09:44.084Z,3.17
2022-10-06T09:12:40.436Z,3.87
2022-10-06T09:15:38.391Z,3.57
2022-10-06T09:18:19.652Z,2.40
2022-10-06T09:21:02.714Z,2.50
2022-10-06T09:23:47.614Z,3.10
2022-10-06T09:26:23.680Z,3.40
2022-10-06T09:28:51.555Z,2.90
2022-10-06T09:31:18.396Z,2.87
2022-10-06T09:33:48.248Z,2.67
2022-10-06T09:36:15.813Z,2.43
2022-10-06T09:38:55.223Z,2.57
2022-10-06T09:41:39.978Z,2.70
2022-10-06T09:44:27.900Z,2.80
2022-10-06T09:46:55.005Z,3.30
2022-10-06T09:49:24.754Z,3.57
2022-10-06T09:52:15.277Z,2.00
2022-10-06T09:54:44.711Z,2.13
2022-10-06T09:57:24.932Z,2.30
2022-10-06T09:59:59.842Z,2.20
2022-10-06T10:02:40.909Z,2.17
2022-10-06T10:05:24.141Z,2.80
2022-10-06T10:08:24.465Z,2.27
2022-10-06T10:11:30.393Z,2.87
2022-10-06T10:13:58.583Z,2.30
2022-10-06T10:16:34.619Z,2.60
2022-10-06T10:19:04.207Z,2.03
2022-10-06T10:21:37.173Z,2.63
2022-10-06T10:24:17.609Z,2.17
2022-10-06T10:27:31.773Z,3.50
2022-10-06T10:30:16.850Z,3.10
2022-10-06T10:32:51.851Z,2.20
2022-10-06T10:35:37.300Z,2.60
2022-10-06T10:38:21.340Z,2.10
2022-10-06T10:40:51.658Z,3.30
2022-10-06T10:43:29.513Z,4.87
2022-10-06T10:46:12.592Z,2.83
2022-10-06T10:48:56.710Z,2.30
2022-10-06T10:51:38.250Z,1.60
2022-10-06T10:54:28.455Z,2.50
2022-10-06T10:56:58.602Z,2.20
2022-10-06T10:59:49.664Z,2.70
2022-10-06T11:02:22.156Z,2.50
2022-10-06T11:05:03.930Z,1.97
2022-10-06T11:07:45.560Z,1.97
2022-10-06T11:10:35.079Z,1.90
2022-10-06T11:13:26.010Z,2.50
2022-10-06T11:16:04.709Z,2.50
2022-10-06T11:18:42.837Z,2.67
2022-10-06T11:21:14.470Z,1.90
2022-10-06T11:24:31.810Z,2.33
2022-10-06T11:27:36.022Z,2.20
2022-10-06T11:30:19.099Z,2.43
2022-10-06T11:33:18.889Z,2.07
2022-10-06T11:35:48.734Z,2.10
2022-10-06T11:38:38.118Z,2.13
2022-10-06T11:41:27.528Z,2.40
2022-10-06T11:44:39.193Z,2.27
2022-10-06T11:47:11.989Z,2.90
2022-10-06T11:49:55.975Z,1.87
2022-10-06T11:52:25.444Z,2.30
2022-10-06T11:55:07.743Z,2.23
2022-10-06T11:58:23.427Z,1.60
2022-10-06T12:00:52.686Z,1.87
2022-10-06T12:03:29.070Z,2.03
2022-10-06T12:05:58.632Z,2.40
2022-10-06T12:08:40.747Z,2.20
2022-10-06T12:11:43.778Z,1.57
2022-10-06T12:18:05.217Z,2.10
2022-10-06T12:21:06.309Z,2.50
2022-10-06T12:24:02.111Z,2.10
2022-10-06T12:26:43.868Z,2.17
2022-10-06T12:29:35.328Z,2.47
2022-10-06T12:32:23.289Z,1.73
2022-10-06T12:35:34.078Z,1.70
2022-10-06T12:38:24.118Z,2.13
2022-10-06T12:40:57.681Z,1.97
2022-10-06T12:43:28.702Z,2.77
2022-10-06T12:46:16.128Z,2.27
2022-10-06T12:48:55.454Z,2.37
2022-10-06T12:51:51.371Z,2.00
2022-10-06T12:54:30.376Z,1.87
2022-10-06T12:57:30.619Z,2.00
2022-10-06T12:59:57.994Z,2.00
2022-10-06T13:02:27.859Z,2.20
2022-10-06T13:05:03.144Z,2.07
2022-10-06T13:07:33.715Z,2.50
2022-10-06T13:10:15.657Z,1.43
2022-10-06T13:12:47.527Z,2.13
2022-10-06T13:18:04.298Z,2.20
2022-10-06T13:20:53.718Z,2.37
2022-10-06T13:23:30.190Z,2.90
2022-10-06T13:26:06.692Z,3.00
2022-10-06T13:28:35.542Z,2.60
2022-10-06T13:31:14.757Z,2.20
2022-10-06T13:33:44.869Z,1.73
2022-10-06T13:36:22.396Z,1.80
2022-10-06T13:38:53.229Z,2.23
2022-10-06T13:41:32.851Z,2.30
2022-10-06T13:44:14.173Z,2.23
2022-10-06T13:46:52.062Z,1.57
2022-10-06T13:49:33.421Z,1.97
2022-10-06T13:52:10.092Z,2.30
2022-10-06T13:55:00.821Z,2.30
2022-10-06T13:57:45.245Z,1.40
2022-10-06T14:00:21.731Z,1.67
2022-10-06T14:02:54.257Z,1.93
2022-10-06T14:05:26.842Z,2.37
2022-10-06T14:08:24.204Z,1.97
2022-10-06T14:10:56.072Z,1.90
2022-10-06T14:13:31.901Z,2.30
2022-10-06T14:16:10.431Z,1.90
2022-10-06T14:18:47.026Z,2.00
2022-10-06T14:21:31.938Z,2.30
2022-10-06T14:24:01.294Z,2.07
2022-10-06T14:26:34.675Z,1.40
2022-10-06T14:29:01.647Z,1.77
2022-10-06T14:31:29.100Z,1.80
2022-10-06T14:33:57.162Z,1.77
2022-10-06T14:36:36.690Z,1.73
2022-10-06T14:39:09.100Z,2.03
2022-10-06T14:41:35.887Z,3.77
2022-10-06T14:44:12.357Z,2.00
2022-10-06T14:46:47.648Z,2.17
2022-10-06T14:49:17.755Z,2.53
2022-10-06T14:51:45.654Z,2.37
2022-10-06T14:54:15.136Z,1.73
2022-10-06T14:56:42.618Z,1.70
2022-10-06T14:59:14.566Z,2.07
2022-10-06T15:01:43.599Z,1.90
2022-10-06T15:04:19.583Z,1.53
2022-10-06T15:07:08.297Z,1.77
2022-10-06T15:09:35.836Z,2.17
2022-10-06T15:12:05.752Z,1.60
2022-10-06T15:14:39.540Z,1.83
2022-10-06T15:17:09.081Z,1.73
2022-10-06T15:19:40.269Z,3.07
2022-10-06T15:22:08.913Z,2.77
2022-10-06T15:24:35.806Z,2.33
2022-10-06T15:27:24.724Z,2.17
2022-10-06T15:29:52.073Z,1.80
2022-10-06T15:32:18.900Z,3.07
2022-10-06T15:34:45.739Z,2.37
2022-10-06T15:37:12.578Z,1.97
2022-10-06T15:39:39.449Z,2.03
2022-10-06T15:42:08.025Z,2.40
2022-10-06T15:44:39.752Z,2.07
2022-10-06T15:47:09.312Z,2.20
2022-10-06T15:49:40.637Z,1.93
2022-10-06T15:52:13.778Z,1.93
2022-10-06T15:54:48.642Z,2.53
2022-10-06T15:57:20.704Z,1.77
2022-10-06T15:59:51.075Z,2.87
2022-10-06T16:02:21.406Z,2.00
2022-10-06T16:05:15.445Z,1.70
2022-10-06T16:07:42.293Z,2.07
2022-10-06T16:10:09.325Z,2.10
2022-10-06T16:12:40.876Z,2.50
2022-10-06T16:15:08.129Z,2.47
2022-10-06T16:17:37.224Z,2.00
2022-10-06T16:20:06.676Z,3.10
2022-10-06T16:22:36.161Z,2.50
2022-10-06T16:25:06.865Z,3.37
2022-10-06T16:27:35.227Z,1.77
2022-10-06T16:30:02.063Z,1.90
2022-10-06T16:32:28.979Z,2.53
2022-10-06T16:34:55.803Z,2.67
2022-10-06T16:37:22.600Z,2.60
2022-10-06T16:39:49.464Z,2.30
2022-10-06T16:42:16.741Z,2.20
2022-10-06T16:44:43.621Z,2.33
2022-10-06T16:47:13.638Z,2.77
2022-10-06T16:49:40.515Z,2.23
2022-10-06T16:52:07.339Z,2.93
2022-10-06T16:54:36.374Z,8.67
2022-10-06T16:57:06.640Z,7.87
2022-10-06T16:59:33.530Z,3.27
2022-10-06T17:02:00.357Z,3.03
2022-10-06T17:04:27.449Z,3.07
2022-10-06T17:06:56.722Z,3.70
2022-10-06T17:09:27.456Z,5.40
2022-10-06T17:12:02.606Z,9.47
2022-10-06T17:14:34.701Z,5.43
2022-10-06T17:17:05.646Z,6.17
2022-10-06T17:19:32.477Z,3.70
2022-10-06T17:22:00.110Z,4.10
2022-10-06T17:24:31.222Z,3.87
2022-10-06T17:26:59.041Z,4.80
2022-10-06T17:29:27.178Z,3.47
2022-10-06T17:31:59.475Z,4.07
2022-10-06T17:34:31.671Z,4.13
2022-10-06T17:36:59.285Z,3.90
2022-10-06T17:39:26.097Z,3.30
2022-10-06T17:41:56.771Z,4.47
2022-10-06T17:44:27.476Z,3.47
2022-10-06T17:47:00.151Z,3.10
2022-10-06T17:49:27.998Z,4.00
2022-10-06T17:51:59.924Z,4.53
2022-10-06T17:54:28.424Z,3.23
2022-10-06T17:57:01.040Z,3.10
2022-10-06T17:59:31.193Z,4.10
2022-10-06T18:02:01.152Z,3.30
2022-10-06T18:04:29.047Z,3.87
2022-10-06T18:06:56.982Z,4.10
2022-10-06T18:09:24.029Z,4.33
2022-10-06T18:11:56.113Z,3.93
2022-10-06T18:14:26.853Z,3.90
2022-10-06T18:17:04.032Z,4.80
2022-10-06T18:19:35.573Z,4.10
2022-10-06T18:22:10.472Z,4.10
2022-10-06T18:24:41.463Z,4.23
2022-10-06T18:27:08.878Z,3.83
2022-10-06T18:29:38.332Z,4.07
2022-10-06T18:37:44.638Z,3.57
2022-10-06T18:40:12.365Z,4.30
2022-10-06T18:42:39.571Z,5.20
2022-10-06T18:45:27.134Z,4.53
2022-10-06T18:48:12.248Z,3.30
2022-10-06T18:50:39.594Z,3.37
2022-10-06T18:53:06.626Z,4.20
2022-10-06T18:55:36.621Z,3.40
2022-10-06T18:58:06.483Z,3.93
2022-10-06T19:00:34.112Z,4.20
2022-10-06T19:03:01.317Z,4.30
2022-10-06T19:05:29.582Z,3.90
2022-10-06T19:07:56.715Z,3.80
2022-10-06T19:10:23.711Z,4.50
2022-10-06T19:12:50.682Z,3.80
2022-10-06T19:15:22.410Z,2.97
2022-10-06T19:17:52.036Z,3.23
2022-10-06T19:20:19.883Z,3.13
2022-10-06T19:22:47.550Z,2.80
2022-10-06T19:25:18.816Z,3.03
2022-10-06T19:27:45.898Z,3.47
2022-10-06T19:30:13.573Z,3.30
2022-10-06T19:32:43.118Z,3.90
2022-10-06T19:35:13.421Z,3.73
2022-10-06T19:37:43.522Z,2.97
2022-10-06T19:40:11.503Z,3.00
2022-10-06T19:42:47.897Z,3.70
2022-10-06T19:45:16.446Z,3.33
2022-10-06T19:47:44.863Z,3.00
2022-10-06T19:50:12.984Z,4.50
2022-10-06T19:52:41.315Z,3.67
2022-10-06T19:55:10.775Z,2.83
2022-10-06T19:57:37.619Z,2.70
2022-10-06T20:00:06.713Z,3.20
2022-10-06T20:02:34.918Z,3.20
2022-10-06T20:05:05.851Z,3.60
2022-10-06T20:07:35.523Z,2.33
2022-10-06T20:10:03.175Z,4.37
2022-10-06T20:12:30.057Z,4.20
2022-10-06T20:14:59.085Z,3.27
2022-10-06T20:17:28.892Z,3.53
2022-10-06T20:20:01.865Z,3.70
2022-10-06T20:22:34.474Z,3.53
2022-10-06T20:25:05.225Z,3.53
2022-10-06T20:27:39.747Z,3.60
2022-10-06T20:30:08.147Z,2.80
2022-10-06T20:32:40.161Z,2.93
2022-10-06T20:35:08.048Z,3.50
2022-10-06T20:37:41.732Z,3.60
2022-10-06T20:40:28.345Z,4.50
2022-10-06T20:42:55.213Z,2.60
2022-10-06T20:45:23.469Z,3.40
2022-10-06T20:47:52.589Z,4.07
2022-10-06T20:50:19.904Z,2.90
2022-10-06T20:52:49.321Z,3.60
2022-10-06T20:55:18.617Z,3.60
2022-10-06T20:57:45.771Z,2.90
2022-10-06T21:00:15.470Z,3.70
2022-10-06T21:02:46.807Z,2.53
2022-10-06T21:05:13.934Z,2.43
2022-10-06T21:07:43.814Z,3.20
2022-10-06T21:10:11.326Z,3.17
2022-10-06T21:12:43.167Z,2.83
2022-10-06T21:15:10.518Z,2.60
2022-10-06T21:17:41.513Z,2.80
2022-10-06T21:20:11.691Z,3.73
2022-10-06T21:22:43.228Z,3.50
2022-10-06T21:25:13.023Z,4.10
2022-10-06T21:27:40.302Z,3.77
2022-10-06T21:30:10.244Z,3.50
2022-10-06T21:32:38.201Z,4.00
2022-10-06T21:35:08.287Z,4.67
2022-10-06T21:37:35.230Z,4.53
2022-10-06T21:40:02.676Z,4.50
2022-10-06T21:42:29.724Z,4.27
2022-10-06T21:44:59.055Z,3.40
2022-10-06T21:47:26.016Z,3.27
2022-10-06T21:49:55.169Z,3.90
2022-10-06T21:52:22.090Z,3.57
2022-10-06T21:54:51.975Z,2.97
2022-10-06T21:57:20.997Z,3.70
2022-10-06T21:59:47.922Z,3.30
2022-10-06T22:02:14.823Z,3.33
2022-10-06T22:04:41.955Z,2.60
2022-10-06T22:07:11.336Z,2.80
2022-10-06T22:09:38.219Z,3.10
2022-10-06T22:12:07.163Z,3.00
2022-10-06T22:14:34.136Z,2.50
2022-10-06T22:17:01.036Z,3.50
2022-10-06T22:19:31.007Z,2.50
2022-10-06T22:21:57.880Z,3.30
2022-10-06T22:24:24.761Z,3.20
2022-10-06T22:26:51.709Z,2.90
2022-10-06T22:29:22.315Z,3.13
2022-10-06T22:31:49.481Z,3.40
2022-10-06T22:34:19.550Z,3.10
2022-10-06T22:36:49.168Z,2.67
2022-10-06T22:39:16.578Z,3.27
2022-10-06T22:41:44.037Z,3.10
2022-10-06T22:44:10.898Z,2.97
2022-10-06T22:46:38.517Z,3.30
2022-10-06T22:49:06.796Z,3.10
2022-10-06T22:51:34.172Z,2.73
2022-10-06T22:54:01.458Z,3.07
2022-10-06T22:56:32.690Z,2.70
2022-10-06T22:59:00.403Z,2.63
2022-10-06T23:01:31.212Z,2.33
2022-10-06T23:03:58.572Z,3.17
2022-10-06T23:06:31.291Z,3.07
2022-10-06T23:08:58.715Z,3.03
2022-10-06T23:11:26.060Z,3.60
2022-10-06T23:13:53.266Z,3.30
2022-10-06T23:16:23.894Z,2.83
2022-10-06T23:18:51.151Z,2.87
2022-10-06T23:21:27.330Z,3.20
2022-10-06T23:24:00.230Z,3.43
2022-10-06T23:26:27.741Z,2.70
2022-10-06T23:28:57.653Z,2.93
2022-10-06T23:31:25.724Z,3.33
2022-10-06T23:33:53.794Z,3.30
2022-10-06T23:36:22.857Z,2.80
2022-10-06T23:38:49.914Z,3.73
2022-10-06T23:41:16.929Z,3.50
2022-10-06T23:43:49.020Z,3.23
2022-10-06T23:46:16.118Z,3.47
2022-10-06T23:48:43.232Z,2.90
2022-10-06T23:51:16.213Z,3.40
2022-10-06T23:53:46.155Z,2.43
2022-10-06T23:56:13.266Z,3.80
2022-10-06T23:58:41.820Z,3.67
